岡山グライダークラブ活動状況掲示板

岡山グライダークラブ
岡山市浦安南町639-1 岡南飛行場
 使用機:シャイベ式 SF25C型 ファルケ   JA2330
      ヴァレンティン式17E型 タイフーン  JA2342
 練習日:毎日曜日  クラブルーム:電話 086-265-1810
この掲示板は岡山グライダークラブの活動状況をお知らせする掲示板です。
!!!この掲示板は投稿規制をしています。!!!
クラブ関連各種情報は 岡山グライダークラブクラブルーム      を       .
  ブリーフイング情報は  岡山グライダークラブブリーフィングルーム  をご覧下さい。 .
※写真はクリックすると拡大して見ることが出来ます。
岡南飛行場へのアクセス等は 岡南飛行場管理事務所 をご覧ください。
クラブの ホームページ ができました。

!!!お待たせしました。新型コロナ感染症の感染が下火になったことから見学者等の受入を再開します。!!!
  注)なお、見学等の際には一般的な感染対策(マスク、ソーシャルディスタンス、黙食等)を順守してください。

 
12月04日
by OGC at 2022/12/4(日) 22:57:00 No.20221204225224  削除コメント
640 x 480 x 81,555バイト
No.1

12月04日
本日の参加者
  会員      16名
  その他     01名


@本日の様子






METAR
RJBK 040000Z VRB02KT 20KM -SHRA FEW030CU SCT060SC BKN120AC 08/04 Q1024 A3025
RJOB 040000Z 29003KT 9999 FEW020 BKN030 BKN060 09/05 Q1023
RJOT 040000Z 26004KT 9999 VCSH FEW030 SCT050 BKN070 10/07 Q1023
RJOA 040000Z 31007KT 260V340 9999 -SHRA FEW015 SCT020 BKN030 09/06 Q1024
TAF
RJOB 032306Z 0400/0506 32006KT 9999 FEW020 SCT045
RJOT 032305Z 0400/0506 30006KT 9999 FEW020 BKN035
     BECMG 0412/0415 15005KT
     BECMG 0421/0500 28006KT
RJOA 032305Z 0400/0506 32008KT 9999 FEW015 BKN030


本日の天候は、朝、小雨がポツポツ降る時もありましたが、以降、雨は降りません
でしたが。。。本日も、先週に引き続き、機体の整備を行いました。


解散    18:00

本日のフライトはありません。

    << 戻る || ホームページ || 最新の掲示板へ